Newport Muni Information

FAA: ONP - ICAO: KONP

Newport Muni (Airport) Location

State Oregon
County Lincoln
City Newport
Newport Muni (Airport) is 3 miles south of Newport, OR.
Latitude 44-34-49.3000N
Longitude 124-03-28.5000W
Elevation 160ft

Newport Muni METARs

METAR KONP 190835Z AUTO 29006KT 10SM SCT020 SCT029 BKN050 10/06 A3030 RMK AO2
Altimeter 30.30"
Temperature 10.0°C (50.0°F)
Wind 290° at 6KT
Clouds scattered at 2,000ft scattered at 2,900ft broken at 5,000ft
Visibility 10.0mi
Time observed: 2022-05-19T08:35:00Z

Newport Muni (Airport) Details

Status Operational
Activation March 1945
Ownership Public
Usage Public
Chart SEATTLE
ATC on-site No
Beacon schedule N/A
Beacon color clear green

Newport Muni (Airport) Contacts

Owner CITY OF NEWPORT
Owner address 169 SW COAST HWY, NEWPORT, OR 97365
Owner phone 541-574-0603
Manager N/A
Manager address N/A, N/A
Manager phone N/A

Newport Muni Radio Frequencies

Newport Muni (Airport) Radio Frequencies

UNICOM 122.8
Common traffic advisory frequency (CTAF) 122.8